Time;durP1;ratioP1;P1;durP2;ratioP2;P2;SDS_P1;SDS_P2;PMS_P1;PMS_P2;Temp;Humidity;BMP_temperature;BMP_pressure;BME280_temperature;BME280_humidity;BME280_pressure;Samples;Min_cycle;Max_cycle;Signal;HPM_P1;HPM_P2
2021/05/06 00:33:19;;;;;;;3.63;0.50;;;22.80;27.80;;;;;;5006047;28;20619;-57
2021/05/06 00:35:50;;;;;;;1.00;0.57;;;22.80;27.80;;;;;;5010440;28;20108;-61
2021/05/06 00:38:23;;;;;;;1.10;0.47;;;22.80;27.80;;;;;;5001817;28;20357;-60
2021/05/06 00:43:49;;;;;;;1.10;0.50;;;22.80;27.80;;;;;;5010170;28;20026;-57
2021/05/06 00:59:37;;;;;;;0.73;0.50;;;22.80;27.90;;;;;;5010291;28;20038;-60
2021/05/06 01:04:53;;;;;;;0.70;0.50;;;22.70;27.90;;;;;;5002981;28;20033;-58
2021/05/06 01:07:42;;;;;;;0.63;0.32;;;22.70;27.90;;;;;;5002080;28;20034;-54
2021/05/06 01:12:35;;;;;;;0.73;0.50;;;22.70;28.00;;;;;;5018105;28;20038;-50
2021/05/06 01:15:01;;;;;;;0.60;0.50;;;22.80;28.00;;;;;;5001740;28;20333;-52
2021/05/06 01:17:27;;;;;;;0.85;0.52;;;22.70;28.00;;;;;;5003744;28;20068;-52
2021/05/06 01:19:53;;;;;;;0.80;0.40;;;22.70;28.00;;;;;;5004247;28;20030;-52
2021/05/06 01:22:19;;;;;;;0.65;0.50;;;22.70;28.00;;;;;;5009318;28;21492;-52
2021/05/06 01:24:51;;;;;;;0.45;0.40;;;22.70;28.00;;;;;;5015514;28;20025;-51
2021/05/06 01:27:25;;;;;;;2.15;0.80;;;22.70;28.00;;;;;;5006600;28;20448;-55
2021/05/06 01:30:00;;;;;;;0.45;0.40;;;22.70;28.00;;;;;;5007473;28;20041;-53
2021/05/06 01:32:38;;;;;;;0.28;0.28;;;22.70;28.10;;;;;;5026884;28;20041;-51
2021/05/06 01:35:09;;;;;;;0.70;0.50;;;22.70;28.10;;;;;;5009344;28;20061;-49
2021/05/06 01:37:46;;;;;;;0.70;0.50;;;22.70;28.10;;;;;;5005806;28;20437;-53
2021/05/06 01:42:50;;;;;;;2.08;0.68;;;22.70;28.10;;;;;;5008961;28;20042;-55
2021/05/06 01:57:31;;;;;;;0.80;0.35;;;22.60;28.20;;;;;;5012498;28;20056;-52
2021/05/06 01:58:54;;;;;;;0.50;0.40;;;22.60;28.20;;;;;;5014799;28;20038;-53
2021/05/06 02:01:20;;;;;;;0.40;0.40;;;22.60;28.30;;;;;;5000771;28;20057;-50
2021/05/06 02:03:47;;;;;;;0.38;0.20;;;22.60;28.30;;;;;;5010980;28;20029;-52
2021/05/06 02:06:13;;;;;;;0.70;0.45;;;22.60;28.30;;;;;;5009947;28;20036;-53
2021/05/06 02:08:39;;;;;;;0.30;0.30;;;22.60;28.30;;;;;;5015150;28;20033;-56
2021/05/06 02:11:13;;;;;;;0.65;0.40;;;22.60;28.30;;;;;;5006801;28;20049;-50
2021/05/06 02:13:58;;;;;;;0.40;0.30;;;22.60;28.30;;;;;;5014657;28;20088;-52
2021/05/06 02:16:36;;;;;;;1.48;0.55;;;22.60;28.40;;;;;;5004108;28;20030;-53
2021/05/06 02:19:04;;;;;;;0.45;0.40;;;22.60;28.40;;;;;;5014598;28;20045;-51
2021/05/06 02:21:31;;;;;;;0.60;0.35;;;22.60;28.40;;;;;;5009419;28;20465;-58
2021/05/06 02:23:59;;;;;;;0.55;0.43;;;22.60;28.40;;;;;;5014639;28;20042;-52
2021/05/06 02:26:26;;;;;;;0.43;0.30;;;22.50;28.30;;;;;;5012537;28;20449;-55
2021/05/06 02:28:52;;;;;;;0.55;0.30;;;22.60;28.40;;;;;;5013466;28;20054;-54
2021/05/06 02:31:18;;;;;;;0.50;0.40;;;22.50;28.30;;;;;;5009594;28;20069;-53
2021/05/06 02:33:45;;;;;;;0.40;0.30;;;22.50;28.30;;;;;;5013372;28;20029;-50
2021/05/06 02:36:11;;;;;;;0.20;0.20;;;22.50;28.40;;;;;;5005029;28;20030;-53
2021/05/06 02:38:38;;;;;;;0.40;0.30;;;22.50;28.40;;;;;;5008099;28;20037;-56
2021/05/06 02:41:04;;;;;;;0.40;0.38;;;22.50;28.40;;;;;;5012056;28;20018;-55
2021/05/06 02:43:30;;;;;;;0.35;0.30;;;22.50;28.40;;;;;;5000364;28;20033;-53
2021/05/06 02:45:56;;;;;;;0.40;0.30;;;22.50;28.40;;;;;;5014052;28;20472;-53
2021/05/06 02:48:22;;;;;;;0.30;0.20;;;22.50;28.40;;;;;;5014158;28;20030;-55
2021/05/06 02:50:56;;;;;;;0.63;0.30;;;22.50;28.50;;;;;;5005653;28;20046;-51
2021/05/06 02:53:25;;;;;;;0.55;0.32;;;22.50;28.40;;;;;;5009333;28;20040;-54
2021/05/06 03:03:43;;;;;;;0.38;0.32;;;22.50;28.50;;;;;;5008451;28;20063;-52
2021/05/06 03:06:15;;;;;;;0.70;0.43;;;22.50;28.50;;;;;;5008053;28;20039;-53
2021/05/06 03:08:43;;;;;;;0.30;0.30;;;22.40;28.40;;;;;;5006821;28;20053;-50
2021/05/06 03:24:31;;;;;;;0.20;0.20;;;22.40;28.50;;;;;;5006340;28;20045;-53
2021/05/06 03:26:57;;;;;;;0.38;0.20;;;22.40;28.50;;;;;;5015133;28;20124;-54
2021/05/06 03:29:32;;;;;;;0.30;0.30;;;22.40;28.50;;;;;;5008835;28;20113;-51
2021/05/06 03:32:06;;;;;;;0.63;0.30;;;22.40;28.60;;;;;;5013619;28;20066;-52
2021/05/06 03:42:48;;;;;;;0.80;0.35;;;22.40;28.60;;;;;;5004750;28;20022;-55
2021/05/06 04:17:35;;;;;;;0.35;0.32;;;22.30;28.70;;;;;;5008729;28;20394;-53
2021/05/06 04:36:30;;;;;;;0.40;0.40;;;22.20;28.80;;;;;;5004316;28;20080;-50
2021/05/06 04:38:56;;;;;;;0.70;0.47;;;22.20;28.80;;;;;;5003330;28;20042;-55
2021/05/06 04:54:32;;;;;;;0.75;0.50;;;22.20;28.90;;;;;;5003520;28;20041;-47
2021/05/06 05:04:39;;;;;;;1.35;0.50;;;22.20;29.00;;;;;;5005841;28;20061;-56
2021/05/06 05:12:29;;;;;;;0.80;0.50;;;22.20;29.00;;;;;;5004027;28;20034;-53
2021/05/06 05:27:51;;;;;;;0.50;0.50;;;22.10;29.00;;;;;;5011017;28;20061;-51
2021/05/06 05:30:17;;;;;;;0.68;0.50;;;22.10;29.10;;;;;;5007547;28;20480;-51
2021/05/06 05:32:43;;;;;;;0.52;0.50;;;22.10;29.10;;;;;;5012864;28;20032;-53
2021/05/06 05:38:03;;;;;;;0.55;0.55;;;22.10;29.10;;;;;;5013243;28;20418;-50
2021/05/06 05:40:41;;;;;;;0.43;0.40;;;22.20;29.10;;;;;;5015081;28;20101;-52
2021/05/06 05:56:51;;;;;;;0.73;0.70;;;22.20;29.30;;;;;;4983779;28;20066;-50
2021/05/06 05:59:18;;;;;;;1.00;0.90;;;22.20;29.30;;;;;;4993820;28;20027;-45
2021/05/06 06:01:43;;;;;;;0.80;0.63;;;22.20;29.30;;;;;;4998236;28;20046;-46
2021/05/06 06:04:09;;;;;;;1.00;0.90;;;22.20;29.30;;;;;;5013856;28;20029;-47
2021/05/06 06:06:35;;;;;;;0.88;0.77;;;22.20;29.30;;;;;;5002358;28;20041;-51
2021/05/06 06:09:01;;;;;;;1.50;0.85;;;22.20;29.30;;;;;;5004328;28;20076;-53
2021/05/06 06:11:27;;;;;;;1.00;0.70;;;22.20;29.30;;;;;;5010417;28;20111;-49
2021/05/06 06:13:54;;;;;;;1.00;0.90;;;22.20;29.90;;;;;;5013712;28;20423;-47
2021/05/06 06:16:23;;;;;;;0.85;0.82;;;22.20;29.40;;;;;;5008453;28;20064;-54
2021/05/06 06:19:02;;;;;;;1.23;0.90;;;22.20;29.40;;;;;;5009767;28;20064;-50
2021/05/06 06:21:51;;;;;;;1.00;0.60;;;22.20;29.40;;;;;;5008513;28;20037;-49
2021/05/06 06:24:18;;;;;;;1.00;0.90;;;22.20;29.40;;;;;;5008810;28;20422;-51
2021/05/06 06:26:44;;;;;;;0.70;0.70;;;22.20;29.40;;;;;;5005459;28;20085;-51
2021/05/06 06:29:12;;;;;;;0.98;0.70;;;22.20;29.40;;;;;;5007402;28;20026;-52
2021/05/06 06:31:43;;;;;;;1.00;0.80;;;22.20;29.40;;;;;;5005604;28;20029;-48
2021/05/06 06:34:10;;;;;;;1.88;0.85;;;22.20;29.50;;;;;;5002921;28;20032;-50
2021/05/06 06:36:38;;;;;;;1.02;0.75;;;22.20;29.50;;;;;;5003259;28;20112;-51
2021/05/06 06:39:05;;;;;;;1.55;0.80;;;22.20;29.50;;;;;;5017412;28;20113;-53
2021/05/06 06:41:31;;;;;;;1.33;0.80;;;22.20;29.50;;;;;;5002969;28;20065;-48
2021/05/06 06:43:59;;;;;;;1.38;0.60;;;22.20;29.60;;;;;;5004996;28;20041;-50
2021/05/06 06:46:25;;;;;;;0.70;0.50;;;22.20;29.60;;;;;;5009795;28;20057;-50
2021/05/06 06:48:51;;;;;;;1.10;0.50;;;22.30;29.60;;;;;;5011830;28;20099;-50
2021/05/06 06:51:17;;;;;;;0.93;0.50;;;22.30;29.50;;;;;;5008272;28;20041;-55
2021/05/06 06:53:44;;;;;;;0.52;0.50;;;22.40;29.60;;;;;;5005575;28;20034;-59
2021/05/06 06:56:10;;;;;;;0.68;0.60;;;22.50;29.70;;;;;;5008406;28;20376;-57
2021/05/06 06:58:40;;;;;;;0.85;0.57;;;22.60;29.70;;;;;;5010826;28;20022;-58
2021/05/06 07:01:09;;;;;;;0.80;0.70;;;22.60;29.60;;;;;;5009502;28;20148;-58
2021/05/06 07:03:36;;;;;;;0.73;0.60;;;22.70;29.60;;;;;;5008645;28;20017;-60
2021/05/06 07:06:03;;;;;;;1.45;0.73;;;22.80;29.50;;;;;;5006826;28;20034;-61
2021/05/06 07:08:33;;;;;;;0.65;0.65;;;22.90;29.50;;;;;;5015403;28;20029;-59
2021/05/06 07:11:01;;;;;;;0.60;0.50;;;22.90;29.50;;;;;;5008631;28;20419;-59
2021/05/06 07:13:28;;;;;;;0.85;0.60;;;23.00;29.40;;;;;;5004171;28;20017;-58
2021/05/06 07:16:00;;;;;;;0.52;0.40;;;23.10;29.30;;;;;;5010563;28;20433;-61
2021/05/06 07:18:28;;;;;;;0.60;0.47;;;23.20;29.30;;;;;;5011384;28;20018;-57
2021/05/06 07:20:55;;;;;;;1.17;0.70;;;23.20;29.20;;;;;;5003969;28;20042;-59
2021/05/06 07:23:22;;;;;;;1.48;0.70;;;23.30;29.20;;;;;;5011046;28;20042;-57
2021/05/06 07:25:55;;;;;;;1.27;0.43;;;23.30;29.20;;;;;;5007967;28;20032;-61
2021/05/06 07:28:30;;;;;;;0.95;0.80;;;23.40;29.10;;;;;;4996139;28;20039;-59
2021/05/06 07:31:00;;;;;;;0.70;0.65;;;23.40;29.00;;;;;;5007354;28;20050;-61
2021/05/06 07:33:26;;;;;;;0.55;0.40;;;23.50;29.00;;;;;;5013368;28;20104;-54
2021/05/06 07:35:55;;;;;;;1.15;0.60;;;23.60;29.00;;;;;;5005436;28;20062;-58
2021/05/06 07:38:22;;;;;;;1.02;0.63;;;23.60;28.90;;;;;;5009798;28;20022;-57
2021/05/06 07:40:50;;;;;;;0.60;0.60;;;23.70;28.80;;;;;;5005443;28;20037;-58
2021/05/06 07:43:16;;;;;;;0.63;0.57;;;23.70;28.70;;;;;;5003979;28;20104;-59
2021/05/06 07:45:43;;;;;;;0.80;0.70;;;23.80;28.80;;;;;;5007121;28;20022;-58
2021/05/06 07:48:09;;;;;;;0.52;0.52;;;23.80;28.70;;;;;;5006745;28;20026;-58
2021/05/06 07:50:36;;;;;;;0.73;0.60;;;23.90;28.80;;;;;;5004790;28;20042;-57
2021/05/06 07:53:23;;;;;;;0.80;0.50;;;23.90;28.70;;;;;;5004538;28;20026;-59
2021/05/06 07:55:51;;;;;;;0.70;0.50;;;24.00;28.70;;;;;;5004225;28;20411;-58
2021/05/06 07:58:17;;;;;;;0.98;0.50;;;24.00;28.70;;;;;;5005712;28;20445;-55
2021/05/06 08:00:44;;;;;;;0.70;0.43;;;24.00;28.60;;;;;;5004577;28;20046;-54
2021/05/06 08:03:10;;;;;;;1.08;0.60;;;24.00;28.60;;;;;;5005224;28;20036;-57
2021/05/06 08:05:38;;;;;;;0.80;0.57;;;24.00;28.50;;;;;;5005652;28;20389;-58
2021/05/06 08:08:05;;;;;;;0.47;0.35;;;24.00;28.50;;;;;;5003480;28;20030;-56
2021/05/06 08:10:33;;;;;;;0.70;0.50;;;23.90;28.50;;;;;;5005357;28;20038;-56
2021/05/06 08:13:05;;;;;;;0.68;0.45;;;23.90;28.50;;;;;;5004207;28;20045;-54
2021/05/06 08:15:31;;;;;;;1.02;0.60;;;23.90;28.40;;;;;;5006594;28;20033;-59
2021/05/06 08:17:58;;;;;;;1.33;0.40;;;23.90;28.40;;;;;;5004382;28;20022;-55
2021/05/06 08:20:26;;;;;;;0.55;0.40;;;23.90;28.40;;;;;;5001680;28;20869;-58
2021/05/06 08:22:52;;;;;;;0.60;0.43;;;23.90;28.30;;;;;;5005146;28;20027;-58
2021/05/06 08:25:19;;;;;;;0.30;0.30;;;23.90;28.30;;;;;;5002383;28;20050;-59
2021/05/06 08:27:46;;;;;;;0.75;0.40;;;23.90;28.20;;;;;;5005863;28;20700;-56
2021/05/06 08:30:18;;;;;;;1.13;0.40;;;23.90;28.10;;;;;;5011611;28;20144;-58
2021/05/06 08:32:44;;;;;;;0.40;0.25;;;24.00;28.20;;;;;;4997707;28;20033;-58
2021/05/06 08:35:11;;;;;;;0.40;0.30;;;23.90;28.10;;;;;;5009333;28;20029;-58
2021/05/06 08:37:38;;;;;;;0.77;0.50;;;23.90;28.10;;;;;;5009123;28;20030;-58
2021/05/06 08:40:08;;;;;;;0.30;0.30;;;23.90;28.10;;;;;;5005348;28;20141;-58
2021/05/06 08:42:35;;;;;;;0.22;0.22;;;23.90;28.10;;;;;;5011883;28;20852;-63
2021/05/06 08:45:04;;;;;;;0.30;0.30;;;23.90;28.10;;;;;;5008773;28;20038;-60
2021/05/06 08:47:32;;;;;;;0.60;0.20;;;23.90;28.10;;;;;;5008850;28;20097;-61
2021/05/06 08:50:00;;;;;;;0.30;0.28;;;23.90;28.10;;;;;;5005322;28;20056;-60
2021/05/06 08:52:27;;;;;;;0.80;0.40;;;23.90;28.10;;;;;;5008421;28;20044;-60
2021/05/06 08:54:55;;;;;;;0.35;0.32;;;23.90;28.10;;;;;;5007049;28;20447;-58
2021/05/06 08:57:22;;;;;;;0.28;0.28;;;23.90;28.00;;;;;;5008051;28;20034;-59
2021/05/06 08:59:49;;;;;;;0.80;0.40;;;23.90;28.00;;;;;;5008925;28;20041;-58
2021/05/06 09:02:16;;;;;;;0.40;0.38;;;23.90;28.20;;;;;;5007383;28;20132;-61
2021/05/06 09:04:46;;;;;;;0.50;0.22;;;23.80;27.90;;;;;;5008629;28;20026;-58
2021/05/06 09:07:12;;;;;;;0.65;0.32;;;23.80;27.90;;;;;;5006633;28;20044;-59
2021/05/06 09:09:50;;;;;;;0.50;0.43;;;23.70;27.80;;;;;;5009959;28;20037;-60
2021/05/06 09:12:22;;;;;;;0.40;0.30;;;23.80;27.90;;;;;;5006692;28;20037;-61
2021/05/06 09:14:50;;;;;;;0.30;0.30;;;23.80;27.90;;;;;;5007736;28;20033;-58
2021/05/06 09:17:33;;;;;;;0.30;0.30;;;23.70;27.80;;;;;;5006381;28;20061;-60
2021/05/06 09:20:05;;;;;;;0.93;0.40;;;23.70;27.70;;;;;;5006683;28;20030;-60
2021/05/06 09:22:36;;;;;;;0.77;0.40;;;23.70;27.70;;;;;;5010471;28;20141;-59
2021/05/06 09:25:24;;;;;;;0.80;0.45;;;23.70;27.70;;;;;;5006743;28;20100;-60
2021/05/06 09:28:17;;;;;;;0.30;0.20;;;23.60;27.60;;;;;;5008209;28;20030;-58
2021/05/06 09:30:55;;;;;;;0.43;0.32;;;23.60;27.60;;;;;;5007978;28;20100;-58
2021/05/06 09:33:33;;;;;;;0.30;0.30;;;23.60;27.60;;;;;;5005968;28;20068;-59
2021/05/06 09:36:13;;;;;;;0.93;0.40;;;23.60;27.60;;;;;;5005582;28;20036;-60
2021/05/06 09:38:56;;;;;;;0.43;0.30;;;23.60;27.60;;;;;;5007974;28;20036;-61
2021/05/06 09:41:31;;;;;;;0.40;0.40;;;23.60;27.60;;;;;;5006880;28;20155;-59
2021/05/06 09:44:16;;;;;;;0.70;0.43;;;23.60;27.60;;;;;;5008954;28;20048;-60
2021/05/06 09:46:55;;;;;;;0.28;0.28;;;23.50;27.50;;;;;;5011018;28;20026;-60
2021/05/06 09:49:23;;;;;;;0.40;0.40;;;23.50;27.50;;;;;;5012838;28;20429;-59
2021/05/06 09:51:59;;;;;;;0.82;0.43;;;23.50;27.50;;;;;;5012475;28;20053;-60
2021/05/06 09:54:28;;;;;;;0.30;0.30;;;23.50;27.40;;;;;;5010081;28;20100;-60
2021/05/06 09:57:01;;;;;;;0.50;0.40;;;23.50;27.50;;;;;;5007629;28;20064;-59
2021/05/06 09:59:29;;;;;;;0.82;0.40;;;23.50;27.40;;;;;;5009131;28;20049;-60
2021/05/06 10:02:13;;;;;;;0.57;0.40;;;23.50;27.40;;;;;;5005477;28;20397;-59
2021/05/06 10:04:43;;;;;;;0.40;0.30;;;23.50;27.40;;;;;;5010865;28;20070;-61
2021/05/06 10:07:23;;;;;;;0.73;0.30;;;23.50;27.40;;;;;;5007745;28;20041;-56
2021/05/06 10:10:00;;;;;;;0.45;0.45;;;23.50;27.40;;;;;;5005135;28;20068;-59
2021/05/06 10:12:37;;;;;;;0.70;0.60;;;23.40;27.30;;;;;;5003333;28;20038;-58
2021/05/06 10:15:10;;;;;;;0.50;0.50;;;23.40;27.30;;;;;;5004407;28;20153;-56
2021/05/06 10:17:37;;;;;;;0.70;0.40;;;23.40;27.30;;;;;;5005978;28;20105;-52
2021/05/06 10:20:04;;;;;;;0.32;0.30;;;23.50;27.40;;;;;;5007344;28;20069;-62
2021/05/06 10:22:32;;;;;;;1.52;0.50;;;23.50;27.50;;;;;;5007627;28;20037;-61
2021/05/06 10:25:04;;;;;;;0.40;0.40;;;23.50;27.60;;;;;;5006250;28;20037;-63
2021/05/06 10:27:31;;;;;;;0.88;0.60;;;23.50;27.70;;;;;;5007125;28;20026;-62
2021/05/06 10:29:58;;;;;;;0.57;0.50;;;23.50;27.70;;;;;;5012485;28;20061;-65
2021/05/06 10:32:26;;;;;;;2.08;1.00;;;23.50;27.70;;;;;;5008934;28;20441;-65
2021/05/06 10:34:59;;;;;;;0.47;0.47;;;23.60;27.70;;;;;;5007005;28;20099;-58
2021/05/06 10:37:29;;;;;;;0.80;0.52;;;23.60;27.70;;;;;;5009020;28;20508;-60
2021/05/06 10:39:56;;;;;;;0.40;0.40;;;23.60;27.60;;;;;;5007736;28;20060;-62
2021/05/06 10:42:32;;;;;;;0.93;0.45;;;23.60;27.60;;;;;;5006967;28;20114;-60
2021/05/06 10:45:25;;;;;;;1.05;0.50;;;23.60;27.50;;;;;;5002461;28;20362;-58
2021/05/06 10:47:57;;;;;;;1.27;0.43;;;23.60;27.50;;;;;;5016709;28;20034;-54
2021/05/06 10:50:41;;;;;;;1.25;0.60;;;23.60;27.60;;;;;;5009025;28;20060;-61
2021/05/06 10:53:10;;;;;;;0.70;0.60;;;23.70;27.60;;;;;;5005787;28;20061;-59
2021/05/06 10:55:44;;;;;;;1.00;0.57;;;23.70;27.60;;;;;;5010792;28;20091;-58
2021/05/06 10:58:26;;;;;;;0.70;0.47;;;23.70;27.70;;;;;;5010598;28;20357;-55
2021/05/06 11:01:08;;;;;;;0.55;0.45;;;23.70;27.70;;;;;;5005816;28;20365;-58
2021/05/06 11:03:36;;;;;;;0.75;0.70;;;23.80;27.80;;;;;;5006891;28;20144;-60
2021/05/06 11:06:04;;;;;;;0.60;0.50;;;23.80;27.80;;;;;;4998319;28;20048;-60
2021/05/06 11:08:35;;;;;;;0.65;0.45;;;23.90;27.90;;;;;;5006705;28;20048;-61
2021/05/06 11:11:03;;;;;;;0.50;0.40;;;23.90;27.90;;;;;;5012178;28;20061;-59
2021/05/06 11:14:05;;;;;;;0.50;0.40;;;23.90;27.90;;;;;;5007057;28;21435;-61
2021/05/06 11:16:39;;;;;;;0.90;0.50;;;24.00;27.90;;;;;;5007216;28;20088;-59
2021/05/06 11:19:11;;;;;;;0.98;0.52;;;24.00;28.00;;;;;;5008701;28;20096;-61
2021/05/06 11:21:40;;;;;;;0.70;0.52;;;24.00;28.00;;;;;;5006250;28;20084;-58
2021/05/06 11:24:27;;;;;;;0.35;0.35;;;24.00;28.00;;;;;;5007389;28;20853;-62
2021/05/06 11:27:12;;;;;;;0.70;0.40;;;24.10;28.00;;;;;;5007711;28;20446;-58
2021/05/06 11:29:48;;;;;;;1.02;0.40;;;24.10;28.00;;;;;;5006530;28;20049;-60
2021/05/06 11:32:24;;;;;;;0.22;0.22;;;24.10;28.00;;;;;;5009194;28;20438;-58
2021/05/06 11:34:52;;;;;;;0.57;0.30;;;24.00;27.90;;;;;;5010623;28;20049;-59
2021/05/06 11:37:27;;;;;;;0.30;0.30;;;24.00;27.80;;;;;;5006994;28;20040;-57
2021/05/06 11:40:04;;;;;;;0.30;0.30;;;24.10;27.80;;;;;;5002445;28;20362;-57
2021/05/06 11:42:39;;;;;;;0.30;0.30;;;24.10;27.70;;;;;;4994304;28;20456;-58
2021/05/06 11:45:22;;;;;;;0.43;0.30;;;24.00;27.70;;;;;;5002921;28;20049;-58
2021/05/06 11:47:49;;;;;;;0.60;0.40;;;24.00;27.60;;;;;;5003152;28;20053;-57
2021/05/06 11:50:32;;;;;;;0.50;0.30;;;24.00;27.60;;;;;;5004026;28;20057;-57
2021/05/06 11:53:00;;;;;;;0.45;0.30;;;24.10;27.50;;;;;;5003143;28;20030;-58
2021/05/06 11:55:30;;;;;;;1.15;0.30;;;24.10;27.60;;;;;;5002482;28;20064;-60
2021/05/06 11:57:58;;;;;;;0.65;0.40;;;24.00;27.60;;;;;;5003128;28;20066;-57
2021/05/06 12:00:28;;;;;;;0.55;0.40;;;24.10;27.60;;;;;;5003719;28;20080;-56
2021/05/06 12:03:01;;;;;;;1.90;0.30;;;24.10;27.50;;;;;;5008540;28;20428;-60
2021/05/06 12:05:49;;;;;;;1.15;0.40;;;24.10;27.40;;;;;;5017656;28;20488;-58
2021/05/06 12:08:16;;;;;;;1.08;0.40;;;24.10;27.40;;;;;;5010859;28;20049;-54
2021/05/06 12:10:42;;;;;;;0.38;0.30;;;24.10;27.40;;;;;;5013380;28;20041;-59
2021/05/06 12:13:10;;;;;;;0.32;0.32;;;24.10;27.20;;;;;;5015032;28;20038;-59
2021/05/06 12:15:37;;;;;;;0.45;0.38;;;24.10;27.10;;;;;;5015025;28;20037;-60
2021/05/06 12:18:16;;;;;;;1.38;0.40;;;24.10;27.00;;;;;;5013108;28;20361;-58
2021/05/06 12:20:52;;;;;;;2.17;0.30;;;24.10;26.90;;;;;;5014348;28;20038;-60
2021/05/06 12:23:19;;;;;;;0.77;0.43;;;24.10;26.80;;;;;;5013303;28;20087;-58
2021/05/06 12:25:48;;;;;;;0.95;0.50;;;24.00;26.70;;;;;;5013286;28;20095;-57
2021/05/06 12:28:14;;;;;;;0.35;0.30;;;24.00;26.60;;;;;;5014230;28;20030;-58
2021/05/06 12:30:40;;;;;;;0.35;0.30;;;24.00;26.50;;;;;;5012599;28;20062;-59
2021/05/06 12:33:07;;;;;;;0.50;0.40;;;24.00;26.50;;;;;;5013073;28;20036;-59
2021/05/06 12:35:48;;;;;;;0.30;0.30;;;24.00;26.40;;;;;;5011340;28;20038;-60
2021/05/06 12:38:16;;;;;;;0.43;0.35;;;24.00;26.30;;;;;;5013312;28;20049;-57
2021/05/06 12:40:43;;;;;;;0.43;0.30;;;24.00;26.40;;;;;;5013518;28;20111;-61
2021/05/06 12:43:27;;;;;;;0.30;0.30;;;24.00;26.40;;;;;;5007254;28;20030;-59
2021/05/06 12:46:01;;;;;;;0.50;0.30;;;24.00;26.40;;;;;;5002086;28;20041;-57
2021/05/06 12:48:56;;;;;;;0.20;0.20;;;24.00;26.40;;;;;;5008035;28;20073;-60
2021/05/06 12:51:34;;;;;;;0.32;0.30;;;23.90;26.40;;;;;;5013673;28;20068;-59
2021/05/06 12:54:04;;;;;;;0.43;0.20;;;23.90;26.40;;;;;;5012529;28;20120;-58
2021/05/06 12:56:35;;;;;;;0.40;0.35;;;23.90;26.40;;;;;;5014462;28;20037;-60
2021/05/06 12:59:25;;;;;;;0.43;0.38;;;23.80;26.40;;;;;;5013943;28;20041;-60
2021/05/06 13:01:52;;;;;;;0.30;0.30;;;23.90;26.50;;;;;;5013585;28;20458;-58
2021/05/06 13:04:18;;;;;;;0.40;0.30;;;23.90;26.60;;;;;;5011398;28;20057;-57
2021/05/06 13:06:45;;;;;;;0.38;0.28;;;23.80;26.50;;;;;;4993623;28;20072;-60
2021/05/06 13:09:13;;;;;;;0.20;0.20;;;23.80;26.50;;;;;;5013190;28;20529;-58
2021/05/06 13:11:40;;;;;;;0.40;0.20;;;23.80;26.60;;;;;;5011204;28;20068;-60
2021/05/06 13:14:07;;;;;;;0.73;0.20;;;23.70;26.60;;;;;;5013219;28;20104;-54
2021/05/06 13:16:49;;;;;;;0.32;0.28;;;23.80;26.60;;;;;;5011023;28;20034;-58
2021/05/06 13:19:19;;;;;;;0.50;0.20;;;23.80;26.60;;;;;;5010640;28;20108;-58
2021/05/06 13:21:51;;;;;;;0.30;0.30;;;23.80;26.80;;;;;;5002644;28;20040;-55
2021/05/06 13:24:18;;;;;;;0.65;0.40;;;23.80;26.80;;;;;;5003142;28;20177;-57
2021/05/06 13:26:45;;;;;;;0.35;0.30;;;23.80;27.00;;;;;;5002645;28;20450;-56
2021/05/06 13:29:17;;;;;;;0.30;0.30;;;23.80;27.10;;;;;;5015080;28;20030;-57
2021/05/06 13:31:48;;;;;;;0.65;0.40;;;23.70;27.20;;;;;;5001424;28;20060;-57
2021/05/06 13:34:26;;;;;;;0.52;0.30;;;23.80;27.30;;;;;;5002382;28;20053;-59
2021/05/06 13:37:06;;;;;;;0.40;0.40;;;23.80;27.40;;;;;;5003419;28;20105;-59
2021/05/06 13:39:35;;;;;;;0.40;0.30;;;23.80;27.50;;;;;;5010187;28;20030;-60
2021/05/06 13:42:02;;;;;;;0.63;0.30;;;23.80;27.50;;;;;;5007822;28;20040;-60
2021/05/06 13:44:30;;;;;;;1.65;0.65;;;23.80;27.60;;;;;;5002882;28;20042;-59
2021/05/06 13:47:05;;;;;;;1.38;0.30;;;23.80;27.70;;;;;;5006392;28;20033;-61
2021/05/06 13:49:33;;;;;;;0.90;0.40;;;23.90;27.80;;;;;;5009127;28;20034;-59
2021/05/06 13:52:00;;;;;;;0.50;0.35;;;23.90;27.90;;;;;;5008869;28;20041;-59
2021/05/06 13:54:27;;;;;;;0.50;0.30;;;23.90;27.90;;;;;;5008974;28;20040;-61
2021/05/06 13:56:57;;;;;;;1.02;0.40;;;24.00;28.00;;;;;;5005213;28;20048;-59
2021/05/06 13:59:25;;;;;;;0.38;0.38;;;24.00;28.00;;;;;;5006350;28;20064;-57
2021/05/06 14:01:56;;;;;;;1.08;0.43;;;24.00;28.00;;;;;;5005662;28;20049;-61
2021/05/06 14:04:23;;;;;;;1.20;0.40;;;24.00;28.00;;;;;;5002473;28;20042;-58
2021/05/06 14:06:51;;;;;;;0.73;0.50;;;24.10;28.10;;;;;;5010093;28;20535;-57
2021/05/06 14:09:18;;;;;;;1.50;0.43;;;24.10;28.10;;;;;;5013232;28;20073;-56
2021/05/06 14:11:46;;;;;;;1.00;0.50;;;24.10;28.10;;;;;;5010079;28;20315;-54
2021/05/06 14:14:14;;;;;;;1.85;0.45;;;24.10;28.10;;;;;;5014618;28;20022;-61
2021/05/06 14:16:41;;;;;;;2.03;0.63;;;24.10;28.10;;;;;;5009166;28;20042;-55
2021/05/06 14:19:09;;;;;;;1.13;0.45;;;24.20;28.10;;;;;;5016019;28;21456;-61
2021/05/06 14:21:42;;;;;;;0.68;0.40;;;24.20;28.10;;;;;;5015342;28;20026;-57
2021/05/06 14:24:10;;;;;;;0.50;0.30;;;24.20;28.00;;;;;;5012446;28;20046;-59
2021/05/06 14:26:40;;;;;;;0.77;0.38;;;24.20;28.00;;;;;;5015543;28;20473;-59
2021/05/06 14:29:06;;;;;;;1.52;0.35;;;24.20;27.90;;;;;;5013514;28;20077;-62
2021/05/06 14:31:32;;;;;;;0.60;0.40;;;24.20;27.80;;;;;;5014391;28;20446;-61
2021/05/06 14:34:10;;;;;;;0.40;0.32;;;24.20;27.70;;;;;;5014446;28;20105;-62
2021/05/06 14:36:37;;;;;;;0.63;0.28;;;24.20;27.60;;;;;;5011883;28;20048;-64
2021/05/06 14:39:05;;;;;;;0.40;0.40;;;24.20;27.50;;;;;;5012638;28;20033;-57
2021/05/06 14:41:31;;;;;;;0.68;0.40;;;24.10;27.40;;;;;;5013593;28;20345;-59
2021/05/06 14:43:57;;;;;;;2.75;0.43;;;24.10;27.40;;;;;;5013231;28;20037;-60
2021/05/06 14:46:23;;;;;;;0.40;0.35;;;24.10;27.30;;;;;;5008870;28;20471;-61
2021/05/06 14:48:50;;;;;;;1.15;0.40;;;24.00;27.10;;;;;;5010262;28;20421;-58
2021/05/06 14:51:16;;;;;;;0.35;0.32;;;24.00;27.10;;;;;;5010848;28;20042;-59
2021/05/06 14:53:43;;;;;;;0.50;0.40;;;24.00;27.00;;;;;;5009781;28;20041;-60
2021/05/06 14:56:08;;;;;;;0.43;0.40;;;23.90;26.90;;;;;;5008584;28;20036;-58
2021/05/06 14:58:35;;;;;;;0.32;0.32;;;24.00;26.90;;;;;;5012261;28;20026;-60
2021/05/06 15:01:02;;;;;;;0.30;0.30;;;23.90;26.90;;;;;;5006264;28;20046;-58
2021/05/06 15:03:28;;;;;;;0.30;0.30;;;23.90;26.80;;;;;;5021785;28;21689;-59
2021/05/06 15:05:55;;;;;;;0.28;0.25;;;23.90;26.80;;;;;;5011912;28;20022;-60
2021/05/06 15:08:21;;;;;;;0.70;0.30;;;23.90;26.80;;;;;;5007081;28;20083;-60
2021/05/06 15:10:47;;;;;;;0.47;0.38;;;23.90;26.80;;;;;;5011665;28;20038;-60
2021/05/06 15:13:13;;;;;;;0.60;0.30;;;23.90;26.80;;;;;;5011946;28;20040;-60
2021/05/06 15:15:40;;;;;;;0.95;0.30;;;23.90;26.80;;;;;;5011073;28;20040;-57
2021/05/06 15:18:06;;;;;;;0.30;0.25;;;23.90;26.80;;;;;;5012645;28;20026;-61
2021/05/06 15:20:33;;;;;;;0.93;0.60;;;23.90;26.80;;;;;;5010307;28;20060;-57
2021/05/06 15:22:59;;;;;;;0.30;0.30;;;23.90;26.80;;;;;;5010576;28;20107;-59
2021/05/06 15:25:25;;;;;;;0.35;0.30;;;23.80;26.80;;;;;;5011837;28;20037;-61
2021/05/06 15:27:51;;;;;;;0.55;0.30;;;23.80;26.80;;;;;;5012708;28;20116;-56
2021/05/06 15:30:20;;;;;;;0.40;0.40;;;23.80;26.90;;;;;;5011476;28;20038;-53
2021/05/06 15:32:46;;;;;;;0.52;0.40;;;23.80;26.90;;;;;;4998953;28;20048;-57
2021/05/06 15:35:15;;;;;;;0.52;0.40;;;23.80;27.00;;;;;;5008421;28;20390;-54
2021/05/06 15:37:41;;;;;;;0.47;0.30;;;23.80;26.90;;;;;;5003741;28;20034;-60
2021/05/06 15:40:10;;;;;;;0.50;0.40;;;23.80;27.00;;;;;;5012982;28;20026;-60
2021/05/06 15:42:37;;;;;;;0.40;0.40;;;23.80;27.00;;;;;;5004507;28;20385;-59
2021/05/06 15:45:06;;;;;;;0.70;0.40;;;23.80;27.00;;;;;;5010446;28;20029;-56
2021/05/06 15:47:32;;;;;;;0.40;0.30;;;23.80;27.00;;;;;;5012302;28;20485;-58
2021/05/06 15:49:59;;;;;;;0.45;0.40;;;23.80;27.00;;;;;;5011231;28;20056;-57
2021/05/06 15:52:26;;;;;;;0.45;0.40;;;23.80;26.90;;;;;;5012531;28;20026;-59
2021/05/06 15:54:51;;;;;;;0.95;0.40;;;23.70;26.90;;;;;;5009890;28;20770;-55
2021/05/06 15:57:18;;;;;;;0.52;0.32;;;23.70;26.90;;;;;;5009349;28;20041;-58
2021/05/06 15:59:44;;;;;;;0.65;0.28;;;23.80;26.90;;;;;;5007289;28;20034;-58
2021/05/06 16:02:11;;;;;;;0.47;0.40;;;23.80;26.90;;;;;;5009497;28;20049;-57
2021/05/06 16:04:40;;;;;;;0.50;0.50;;;23.70;26.90;;;;;;5009392;28;20516;-55
2021/05/06 16:07:06;;;;;;;0.43;0.40;;;23.70;26.80;;;;;;5011037;28;20374;-57
2021/05/06 16:09:32;;;;;;;1.10;0.40;;;23.70;26.80;;;;;;5009163;28;20030;-59
2021/05/06 16:11:58;;;;;;;0.60;0.30;;;23.60;26.80;;;;;;5006801;28;20087;-59
2021/05/06 16:14:24;;;;;;;0.38;0.30;;;23.60;27.20;;;;;;5008186;28;20394;-53
2021/05/06 16:16:49;;;;;;;0.40;0.38;;;23.60;26.70;;;;;;5011145;28;20044;-57
2021/05/06 16:19:16;;;;;;;0.25;0.25;;;23.50;26.70;;;;;;5010896;28;20497;-58
2021/05/06 16:21:42;;;;;;;0.50;0.40;;;23.50;26.60;;;;;;5010223;28;20033;-58
2021/05/06 16:24:11;;;;;;;0.32;0.30;;;23.50;26.70;;;;;;5001776;28;20365;-53